Time;durP1;ratioP1;P1;durP2;ratioP2;P2;SDS_P1;SDS_P2;PMS_P1;PMS_P2;Temp;Humidity;BMP_temperature;BMP_pressure;BME280_temperature;BME280_humidity;BME280_pressure;Samples;Min_cycle;Max_cycle;Signal;HPM_P1;HPM_P2
2021/11/08 00:01:24;;;;;;;9.60;1.00;;;;;;;7.43;73.00;100108.91;113524;1196;22424;-57
2021/11/08 00:03:55;;;;;;;12.20;1.30;;;;;;;7.40;72.99;100110.00;113370;1196;22433;-59
2021/11/08 00:06:27;;;;;;;8.00;1.10;;;;;;;7.37;72.97;100112.03;113274;1196;24861;-58
2021/11/08 00:08:58;;;;;;;6.30;1.10;;;;;;;7.33;73.04;100112.02;113279;1196;22399;-56
2021/11/08 00:11:29;;;;;;;6.70;1.10;;;;;;;7.30;73.04;100118.80;113596;1196;25026;-58
2021/11/08 00:14:01;;;;;;;9.90;1.00;;;;;;;7.29;73.03;100123.78;113399;1196;22438;-58
2021/11/08 00:16:37;;;;;;;8.60;1.20;;;;;;;7.29;73.10;100126.23;113467;1189;22477;-57
2021/11/08 00:19:23;;;;;;;7.40;1.20;;;;;;;7.29;73.12;100128.39;113324;1189;22979;-57
2021/11/08 00:21:56;;;;;;;5.90;1.10;;;;;;;7.26;73.06;100128.26;113277;1196;25096;-57
2021/11/08 00:24:27;;;;;;;9.40;1.30;;;;;;;7.22;72.90;100125.02;113381;1196;22536;-57
2021/11/08 00:27:01;;;;;;;7.20;1.10;;;;;;;7.19;72.99;100125.62;113393;1196;24086;-61
2021/11/08 00:29:34;;;;;;;6.20;0.90;;;;;;;7.15;72.93;100125.05;113411;1196;22433;-58
2021/11/08 00:32:07;;;;;;;7.50;1.20;;;;;;;7.13;73.02;100126.11;113408;1195;22425;-58
2021/11/08 00:34:39;;;;;;;8.00;1.00;;;;;;;7.10;73.05;100129.32;113688;1196;22651;-57
2021/11/08 00:37:10;;;;;;;6.30;1.00;;;;;;;7.07;73.02;100129.78;113580;1196;22758;-60
2021/11/08 00:39:41;;;;;;;6.50;0.90;;;;;;;7.05;73.05;100130.88;113398;1196;25034;-60
2021/11/08 00:42:12;;;;;;;8.20;1.10;;;;;;;7.03;73.08;100129.77;113348;1180;22459;-60
2021/11/08 00:44:43;;;;;;;7.70;0.90;;;;;;;7.00;73.09;100133.15;113461;1196;22412;-57
2021/11/08 00:47:15;;;;;;;8.60;1.20;;;;;;;6.97;73.17;100138.64;113275;1196;27418;-61
2021/11/08 00:49:48;;;;;;;9.80;1.60;;;;;;;6.94;73.18;100137.81;113461;1196;22771;-60
2021/11/08 00:52:19;;;;;;;9.50;1.10;;;;;;;6.90;73.15;100137.57;113257;1190;24985;-59
2021/11/08 00:54:52;;;;;;;9.00;1.00;;;;;;;6.86;73.16;100141.69;113383;1190;22432;-58
2021/11/08 00:57:25;;;;;;;6.00;0.90;;;;;;;6.81;73.22;100139.36;113408;1195;24025;-57
2021/11/08 00:59:59;;;;;;;12.90;1.90;;;;;;;6.78;73.34;100138.78;113291;1196;25030;-58
2021/11/08 01:02:31;;;;;;;4.70;0.90;;;;;;;6.74;73.37;100140.35;113366;1190;22433;-55
2021/11/08 01:05:02;;;;;;;8.80;1.10;;;;;;;6.71;73.43;100142.86;113418;1190;22464;-58
2021/11/08 01:07:33;;;;;;;6.40;1.60;;;;;;;6.68;73.51;100140.59;113295;1196;22434;-57
2021/11/08 01:10:08;;;;;;;11.20;2.30;;;;;;;6.66;73.52;100145.19;113705;1196;25010;-60
2021/11/08 01:12:39;;;;;;;9.20;0.80;;;;;;;6.64;73.63;100143.99;113347;1193;25060;-58
2021/11/08 01:15:13;;;;;;;9.60;1.00;;;;;;;6.63;73.64;100149.42;113296;1196;22475;-58
2021/11/08 01:17:44;;;;;;;9.10;1.30;;;;;;;6.62;73.72;100152.65;113747;1196;26300;-59
2021/11/08 01:20:16;;;;;;;8.70;0.80;;;;;;;6.59;73.81;100149.48;113444;1196;25108;-59
2021/11/08 01:22:47;;;;;;;5.70;1.10;;;;;;;6.58;73.79;100150.73;113779;1190;22428;-60
2021/11/08 01:25:17;;;;;;;7.40;0.90;;;;;;;6.56;73.80;100153.09;113437;1196;22470;-57
2021/11/08 01:27:53;;;;;;;10.70;1.00;;;;;;;6.53;73.94;100153.98;113386;1195;22995;-54
2021/11/08 01:30:27;;;;;;;11.40;1.10;;;;;;;6.52;73.94;100154.52;113411;1196;25050;-60
2021/11/08 01:33:02;;;;;;;6.00;1.40;;;;;;;6.52;73.97;100157.14;113392;1189;22422;-61
2021/11/08 01:35:39;;;;;;;6.30;0.70;;;;;;;6.52;74.06;100156.55;113329;1196;25069;-59
2021/11/08 01:38:12;;;;;;;6.00;0.80;;;;;;;6.53;74.18;100155.89;113472;1196;22546;-57
2021/11/08 01:40:45;;;;;;;5.40;0.80;;;;;;;6.55;74.10;100162.32;113714;1196;24058;-58
2021/11/08 01:43:16;;;;;;;7.30;1.00;;;;;;;6.58;74.18;100166.83;113478;1196;25130;-59
2021/11/08 01:45:47;;;;;;;10.30;1.10;;;;;;;6.60;74.14;100166.34;113336;1196;23802;-57
2021/11/08 01:48:18;;;;;;;9.20;0.90;;;;;;;6.63;74.18;100166.86;113416;1195;22434;-57
2021/11/08 01:50:49;;;;;;;11.40;1.40;;;;;;;6.65;74.21;100168.85;113414;1196;24337;-58
2021/11/08 01:53:23;;;;;;;6.20;0.70;;;;;;;6.66;74.16;100168.88;113575;1196;22733;-59
2021/11/08 01:55:54;;;;;;;4.00;0.60;;;;;;;6.69;74.17;100173.14;113397;1192;22444;-55
2021/11/08 01:58:28;;;;;;;7.00;0.60;;;;;;;6.71;74.17;100172.59;113358;1190;24971;-59
2021/11/08 02:01:01;;;;;;;9.90;0.80;;;;;;;6.74;74.08;100176.12;113530;1196;25048;-58
2021/11/08 02:03:32;;;;;;;10.80;0.80;;;;;;;6.76;74.02;100176.58;113541;1196;24138;-57
2021/11/08 02:06:03;;;;;;;9.50;0.80;;;;;;;6.79;73.93;100171.78;113383;1190;22424;-59
2021/11/08 02:08:37;;;;;;;6.40;0.90;;;;;;;6.82;73.93;100172.73;113432;1196;22445;-58
2021/11/08 02:11:09;;;;;;;11.40;2.00;;;;;;;6.84;73.90;100172.39;113531;1196;22431;-60
2021/11/08 02:13:39;;;;;;;7.40;1.00;;;;;;;6.87;73.80;100172.73;113512;1196;22455;-55
2021/11/08 02:16:11;;;;;;;10.00;1.00;;;;;;;6.91;73.82;100176.77;113343;1190;25199;-58
2021/11/08 02:18:41;;;;;;;8.70;0.90;;;;;;;6.95;73.67;100174.27;113427;1196;22441;-57
2021/11/08 02:21:13;;;;;;;7.10;0.60;;;;;;;6.98;73.60;100177.95;113385;1196;24257;-58
2021/11/08 02:23:47;;;;;;;10.30;0.90;;;;;;;7.01;73.54;100180.75;113512;1196;24993;-60
2021/11/08 02:26:18;;;;;;;8.00;0.80;;;;;;;7.05;73.50;100179.34;113416;1196;25019;-58
2021/11/08 02:28:53;;;;;;;7.20;0.90;;;;;;;7.08;73.49;100185.73;113507;1196;25076;-59
2021/11/08 02:31:27;;;;;;;9.40;0.80;;;;;;;7.12;73.32;100188.27;113582;1196;23651;-57
2021/11/08 02:34:01;;;;;;;9.00;0.80;;;;;;;7.15;73.26;100193.77;113568;1190;26214;-55
2021/11/08 02:36:34;;;;;;;9.70;0.90;;;;;;;7.17;73.13;100198.30;113435;1196;22821;-60
2021/11/08 02:39:05;;;;;;;12.20;1.30;;;;;;;7.18;73.12;100202.58;113389;1190;22480;-58
2021/11/08 02:41:36;;;;;;;4.70;0.80;;;;;;;7.21;73.08;100202.02;113364;1190;23774;-59
2021/11/08 02:44:08;;;;;;;11.30;1.00;;;;;;;7.24;72.95;100203.88;113398;1196;24968;-58
2021/11/08 02:46:41;;;;;;;10.00;1.20;;;;;;;7.26;73.05;100205.64;113261;1196;25019;-57
2021/11/08 02:49:15;;;;;;;8.60;1.00;;;;;;;7.27;72.98;100207.55;113358;1196;22578;-57
2021/11/08 02:51:57;;;;;;;6.40;0.80;;;;;;;7.28;72.94;100212.36;113450;1190;22497;-57
2021/11/08 02:54:31;;;;;;;8.80;1.00;;;;;;;7.29;72.82;100216.68;113421;1196;22434;-58
2021/11/08 02:57:02;;;;;;;9.90;1.30;;;;;;;7.31;72.76;100218.51;113439;1196;22441;-59
2021/11/08 02:59:35;;;;;;;9.00;0.90;;;;;;;7.32;72.75;100216.34;113275;1190;22914;-59
2021/11/08 03:02:08;;;;;;;6.30;0.80;;;;;;;7.33;72.75;100220.90;113445;1180;22423;-59
2021/11/08 03:04:41;;;;;;;8.50;1.40;;;;;;;7.33;72.78;100219.67;113417;1190;22602;-57
2021/11/08 03:07:12;;;;;;;6.00;0.60;;;;;;;7.34;72.69;100218.23;113432;1190;22420;-58
2021/11/08 03:09:49;;;;;;;7.30;0.90;;;;;;;7.34;72.66;100220.45;113351;1196;22534;-55
2021/11/08 03:12:25;;;;;;;12.50;1.30;;;;;;;7.35;72.68;100216.52;113331;1196;22435;-60
2021/11/08 03:15:02;;;;;;;10.30;1.90;;;;;;;7.36;72.66;100223.08;113292;1196;22432;-59
2021/11/08 03:17:36;;;;;;;14.00;3.00;;;;;;;7.36;72.49;100229.34;113303;1196;24118;-58
2021/11/08 03:20:11;;;;;;;13.70;3.60;;;;;;;7.37;72.46;100234.22;113463;1195;22420;-60
2021/11/08 03:22:48;;;;;;;15.90;3.20;;;;;;;7.38;72.47;100231.57;113526;1196;22441;-58
2021/11/08 03:25:32;;;;;;;10.60;1.70;;;;;;;7.38;72.41;100234.35;113396;1195;22813;-58
2021/11/08 03:28:08;;;;;;;11.50;2.90;;;;;;;7.39;72.41;100234.16;113493;1195;22436;-59
2021/11/08 03:30:44;;;;;;;26.60;9.70;;;;;;;7.39;72.40;100237.96;113572;1196;22768;-55
2021/11/08 03:33:19;;;;;;;26.80;11.60;;;;;;;7.39;72.38;100237.50;113503;1190;25386;-59
2021/11/08 03:35:51;;;;;;;23.70;7.80;;;;;;;7.40;72.30;100236.89;113485;1190;22428;-57
2021/11/08 03:38:23;;;;;;;28.20;8.70;;;;;;;7.41;72.32;100237.27;113515;1196;24025;-58
2021/11/08 03:40:54;;;;;;;16.30;6.70;;;;;;;7.42;72.28;100243.63;113299;1190;24059;-59
2021/11/08 03:43:25;;;;;;;21.00;6.20;;;;;;;7.43;72.23;100237.88;113416;1196;23766;-59
2021/11/08 03:45:58;;;;;;;24.20;7.00;;;;;;;7.43;72.25;100239.14;113413;1190;23774;-58
2021/11/08 03:48:30;;;;;;;16.50;1.90;;;;;;;7.43;72.23;100245.72;113438;1196;22436;-59
2021/11/08 03:51:01;;;;;;;15.40;2.30;;;;;;;7.44;72.33;100248.61;113260;1189;23081;-59
2021/11/08 03:53:32;;;;;;;16.80;1.30;;;;;;;7.44;72.12;100247.05;113467;1195;25120;-56
2021/11/08 03:56:04;;;;;;;11.70;1.10;;;;;;;7.44;72.17;100243.80;113344;1196;22733;-56
2021/11/08 03:58:35;;;;;;;6.50;0.80;;;;;;;7.43;72.32;100247.23;113625;1195;25082;-57
2021/11/08 04:01:07;;;;;;;12.40;1.20;;;;;;;7.43;72.17;100251.77;113510;1196;22468;-59
2021/11/08 04:03:39;;;;;;;9.70;1.00;;;;;;;7.43;72.14;100251.33;113457;1190;22427;-59
2021/11/08 04:06:10;;;;;;;6.60;0.60;;;;;;;7.44;72.15;100253.71;113458;1174;22474;-55
2021/11/08 04:08:41;;;;;;;6.70;0.50;;;;;;;7.44;72.14;100254.36;113418;1189;25126;-59
2021/11/08 04:11:12;;;;;;;8.90;0.80;;;;;;;7.44;72.13;100251.65;113331;1196;25094;-59
2021/11/08 04:13:42;;;;;;;10.00;0.90;;;;;;;7.44;72.22;100251.96;113533;1196;22434;-56
2021/11/08 04:16:15;;;;;;;7.10;0.60;;;;;;;7.44;72.09;100252.27;113385;1196;24058;-57
2021/11/08 04:18:50;;;;;;;8.00;0.90;;;;;;;7.45;72.13;100248.35;113414;1190;25044;-57
2021/11/08 04:21:22;;;;;;;9.60;0.80;;;;;;;7.46;72.14;100247.91;113381;1196;22438;-59
2021/11/08 04:23:52;;;;;;;10.60;0.90;;;;;;;7.46;72.20;100251.09;113447;1196;24971;-57
2021/11/08 04:26:27;;;;;;;7.90;1.00;;;;;;;7.46;72.06;100254.34;114000;1167;22423;-59
2021/11/08 04:29:01;;;;;;;6.30;0.60;;;;;;;7.46;72.03;100254.19;113574;1196;25136;-58
2021/11/08 04:31:37;;;;;;;11.50;1.30;;;;;;;7.46;72.18;100256.41;113688;1196;22436;-55
2021/11/08 04:34:18;;;;;;;7.40;1.00;;;;;;;7.47;72.07;100252.39;113444;1189;22433;-58
2021/11/08 04:39:57;;;;;;;6.60;0.70;;;;;;;7.48;72.15;100256.33;113437;1196;22437;-56
2021/11/08 04:42:32;;;;;;;8.90;0.70;;;;;;;7.48;72.15;100256.25;113450;1189;22444;-58
2021/11/08 04:45:26;;;;;;;14.10;0.90;;;;;;;7.47;72.01;100261.90;113372;1190;22575;-60
2021/11/08 04:50:46;;;;;;;6.00;0.60;;;;;;;7.47;72.18;100262.09;113456;1196;22414;-58
2021/11/08 04:53:28;;;;;;;9.60;0.90;;;;;;;7.47;72.13;100264.46;113344;1196;26364;-58
2021/11/08 05:24:43;;;;;;;12.00;1.00;;;;;;;7.49;72.43;100275.75;113166;1199;22418;-56
2021/11/08 05:30:06;;;;;;;8.70;0.90;;;;;;;7.49;72.53;100281.30;112747;1202;24542;-58
2021/11/08 05:32:40;;;;;;;13.90;1.00;;;;;;;7.49;72.52;100280.19;112657;1202;25120;-68
2021/11/08 05:35:14;;;;;;;6.80;0.70;;;;;;;7.48;72.56;100280.42;112634;1195;24302;-58
2021/11/08 05:37:46;;;;;;;12.60;1.00;;;;;;;7.49;72.59;100276.52;112581;1202;24587;-59
2021/11/08 05:40:21;;;;;;;12.10;1.00;;;;;;;7.50;72.54;100278.40;112452;1195;22448;-58
2021/11/08 05:42:53;;;;;;;16.10;1.50;;;;;;;7.51;72.58;100288.83;112524;1202;22492;-60
2021/11/08 05:45:30;;;;;;;17.00;1.30;;;;;;;7.51;72.67;100285.85;112417;1202;25890;-59
2021/11/08 05:48:02;;;;;;;15.80;0.90;;;;;;;7.52;72.69;100293.95;112429;1195;25134;-59
2021/11/08 05:50:35;;;;;;;11.10;1.00;;;;;;;7.52;72.67;100298.55;112475;1202;22432;-63
2021/11/08 05:53:08;;;;;;;9.80;1.10;;;;;;;7.53;72.76;100300.82;112557;1200;26306;-61
2021/11/08 05:55:43;;;;;;;7.90;0.90;;;;;;;7.53;72.77;100305.89;112646;1200;22498;-59
2021/11/08 05:58:28;;;;;;;11.00;0.80;;;;;;;7.54;72.68;100312.13;112772;1192;22543;-59
2021/11/08 06:51:50;;;;;;;10.50;1.50;;;;;;;7.31;76.73;100394.98;112216;1195;24196;-60
2021/11/08 06:54:23;;;;;;;8.70;1.20;;;;;;;7.25;76.74;100402.63;112314;1203;22445;-60
2021/11/08 06:56:58;;;;;;;10.40;1.20;;;;;;;7.22;77.17;100407.98;112378;1203;24174;-61
2021/11/08 06:59:30;;;;;;;8.30;0.80;;;;;;;7.18;77.43;100407.89;112426;1203;24871;-60
2021/11/08 07:02:01;;;;;;;11.90;1.00;;;;;;;7.15;77.52;100409.12;112425;1195;22457;-60
2021/11/08 07:04:32;;;;;;;8.40;1.20;;;;;;;7.13;77.46;100410.07;112610;1201;25129;-60
2021/11/08 07:07:06;;;;;;;12.10;1.10;;;;;;;7.12;77.71;100412.56;112761;1201;22532;-59
2021/11/08 07:09:38;;;;;;;11.60;1.20;;;;;;;7.11;77.91;100418.23;112541;1201;25021;-60
2021/11/08 07:12:11;;;;;;;12.50;1.40;;;;;;;7.11;77.88;100418.94;112756;1198;24996;-62
2021/11/08 07:14:43;;;;;;;9.10;1.10;;;;;;;7.12;77.96;100424.61;113002;1198;25129;-62
2021/11/08 07:17:14;;;;;;;13.00;1.80;;;;;;;7.13;78.10;100424.96;112902;1193;22435;-60
2021/11/08 07:19:45;;;;;;;9.70;1.30;;;;;;;7.15;78.09;100424.83;112952;1193;22674;-61
2021/11/08 07:22:16;;;;;;;13.40;1.20;;;;;;;7.18;78.20;100432.27;113044;1198;22430;-60
2021/11/08 07:24:47;;;;;;;10.00;1.10;;;;;;;7.20;78.07;100433.62;113274;1198;25104;-60
2021/11/08 07:27:19;;;;;;;12.20;1.10;;;;;;;7.22;78.34;100429.42;112962;1189;24178;-59
2021/11/08 07:29:51;;;;;;;8.90;0.80;;;;;;;7.23;78.11;100433.10;113090;1196;25181;-62
2021/11/08 07:32:24;;;;;;;14.60;1.80;;;;;;;7.26;78.11;100438.15;113307;1196;22427;-59
2021/11/08 07:34:57;;;;;;;8.90;1.00;;;;;;;7.28;78.11;100438.63;113315;1196;22433;-60
2021/11/08 07:37:27;;;;;;;12.70;1.10;;;;;;;7.31;78.08;100442.88;113467;1190;25135;-59
2021/11/08 07:39:59;;;;;;;11.70;1.20;;;;;;;7.35;78.14;100444.52;113091;1196;24019;-59
2021/11/08 07:42:30;;;;;;;14.10;1.00;;;;;;;7.37;78.02;100448.08;113213;1189;22655;-59
2021/11/08 07:45:00;;;;;;;10.60;1.10;;;;;;;7.41;78.10;100451.43;113210;1196;23176;-64
2021/11/08 07:47:32;;;;;;;14.80;1.10;;;;;;;7.45;78.09;100453.27;113100;1196;22441;-64
2021/11/08 07:50:03;;;;;;;10.00;1.00;;;;;;;7.48;78.01;100457.36;113363;1189;22440;-62
2021/11/08 07:52:34;;;;;;;9.80;1.20;;;;;;;7.50;77.94;100456.30;113189;1196;22429;-61
2021/11/08 07:55:09;;;;;;;12.20;1.30;;;;;;;7.54;77.87;100460.47;113140;1196;22559;-62
2021/11/08 07:57:41;;;;;;;14.70;1.20;;;;;;;7.57;77.99;100460.98;113251;1196;22415;-59
2021/11/08 08:00:13;;;;;;;10.80;0.80;;;;;;;7.61;77.89;100467.13;113333;1189;24248;-59
2021/11/08 08:02:45;;;;;;;7.50;0.90;;;;;;;7.64;77.79;100469.69;113832;1196;25078;-60
2021/11/08 08:05:17;;;;;;;11.70;1.50;;;;;;;7.68;77.83;100468.36;113569;1196;22417;-60
2021/11/08 08:07:48;;;;;;;8.50;1.10;;;;;;;7.71;77.78;100472.61;113415;1196;22439;-61
2021/11/08 08:10:19;;;;;;;8.70;1.00;;;;;;;7.73;77.77;100471.65;113162;1190;22430;-62
2021/11/08 08:12:50;;;;;;;7.60;0.90;;;;;;;7.76;77.73;100471.73;113152;1183;25109;-61
2021/11/08 08:15:21;;;;;;;5.90;0.70;;;;;;;7.78;77.73;100474.67;113158;1196;22430;-60
2021/11/08 08:17:52;;;;;;;9.80;1.00;;;;;;;7.80;77.80;100476.02;113125;1189;22441;-60
2021/11/08 08:20:24;;;;;;;9.80;1.00;;;;;;;7.83;77.73;100478.53;113427;1196;25315;-60
2021/11/08 08:22:55;;;;;;;7.50;0.70;;;;;;;7.85;77.76;100481.23;113408;1196;22436;-59
2021/11/08 08:25:26;;;;;;;8.20;0.80;;;;;;;7.86;77.64;100480.92;113139;1196;22530;-60
2021/11/08 08:27:58;;;;;;;6.60;0.90;;;;;;;7.89;77.76;100484.30;113208;1189;22439;-59
2021/11/08 08:30:30;;;;;;;10.20;0.90;;;;;;;7.91;77.68;100488.28;113237;1197;22419;-60
2021/11/08 08:33:00;;;;;;;8.40;0.80;;;;;;;7.92;77.73;100494.59;113237;1183;23197;-60
2021/11/08 08:35:37;;;;;;;10.00;1.10;;;;;;;7.94;77.72;100495.55;113206;1197;22438;-59
2021/11/08 08:38:11;;;;;;;8.30;0.90;;;;;;;7.96;77.78;100498.41;113421;1197;27574;-59
2021/11/08 08:40:42;;;;;;;6.80;0.90;;;;;;;7.99;77.70;100504.19;113421;1197;22430;-59
2021/11/08 08:43:14;;;;;;;7.10;1.10;;;;;;;8.00;77.79;100508.34;113090;1190;24305;-60
2021/11/08 08:45:49;;;;;;;9.70;1.00;;;;;;;8.02;77.81;100509.05;113092;1197;22433;-61
2021/11/08 08:48:20;;;;;;;10.20;1.10;;;;;;;8.04;77.80;100515.84;113276;1197;24044;-60
2021/11/08 08:50:51;;;;;;;11.00;0.90;;;;;;;8.04;77.74;100520.56;113147;1197;23117;-60
2021/11/08 08:53:22;;;;;;;12.70;1.00;;;;;;;8.07;77.78;100521.10;113231;1197;22448;-60
2021/11/08 08:55:54;;;;;;;5.60;0.60;;;;;;;8.10;77.92;100525.70;113234;1197;24166;-59
2021/11/08 08:58:25;;;;;;;9.80;0.80;;;;;;;8.11;77.84;100530.55;113082;1197;22434;-60
2021/11/08 09:00:57;;;;;;;6.10;0.60;;;;;;;8.14;78.08;100529.91;113187;1197;22463;-61
2021/11/08 09:03:28;;;;;;;6.80;0.90;;;;;;;8.15;77.93;100535.02;113177;1197;22436;-61
2021/11/08 09:05:59;;;;;;;8.80;0.90;;;;;;;8.14;77.97;100531.16;113052;1197;25064;-59
2021/11/08 09:08:32;;;;;;;5.80;0.70;;;;;;;8.15;78.02;100528.36;113061;1197;22455;-61
2021/11/08 09:11:03;;;;;;;8.10;0.70;;;;;;;8.16;78.08;100528.88;113008;1197;22450;-61
2021/11/08 09:13:35;;;;;;;7.50;0.90;;;;;;;8.19;78.00;100528.92;112999;1197;22444;-60
2021/11/08 09:16:11;;;;;;;5.30;0.80;;;;;;;8.20;77.94;100532.14;113179;1197;22552;-60
2021/11/08 09:18:45;;;;;;;5.00;0.70;;;;;;;8.22;78.02;100538.51;113211;1197;25095;-60
2021/11/08 09:21:18;;;;;;;5.00;0.70;;;;;;;8.24;77.92;100533.64;113505;1197;25140;-60
2021/11/08 09:23:50;;;;;;;9.80;0.80;;;;;;;8.26;78.03;100537.52;113303;1190;22434;-61
2021/11/08 09:26:22;;;;;;;6.10;0.70;;;;;;;8.25;78.21;100540.39;113171;1196;22474;-59
2021/11/08 09:28:54;;;;;;;6.90;0.60;;;;;;;8.25;78.13;100542.54;113140;1189;22439;-60
2021/11/08 09:31:27;;;;;;;5.70;0.80;;;;;;;8.25;78.22;100548.25;113243;1196;22437;-61
2021/11/08 09:34:03;;;;;;;6.30;0.70;;;;;;;8.24;78.27;100554.95;113278;1197;26286;-61
2021/11/08 09:36:36;;;;;;;4.30;1.10;;;;;;;8.23;78.54;100558.73;113213;1190;22452;-60
2021/11/08 09:39:11;;;;;;;5.10;0.60;;;;;;;8.21;78.70;100558.95;113152;1189;25028;-59
2021/11/08 09:41:42;;;;;;;7.70;0.80;;;;;;;8.23;78.85;100559.92;113075;1197;25097;-60
2021/11/08 09:44:13;;;;;;;10.10;1.20;;;;;;;8.24;78.77;100565.84;113134;1196;25132;-60
2021/11/08 09:46:44;;;;;;;5.10;1.10;;;;;;;8.27;78.71;100564.10;114069;1196;22527;-59
2021/11/08 09:49:15;;;;;;;8.50;1.10;;;;;;;8.30;78.63;100563.34;113468;1196;24880;-59
2021/11/08 09:51:48;;;;;;;5.80;0.80;;;;;;;8.32;78.57;100565.30;113215;1191;25072;-60
2021/11/08 09:54:25;;;;;;;8.90;0.90;;;;;;;8.34;78.53;100568.34;113191;1190;24069;-61
2021/11/08 09:56:58;;;;;;;7.40;1.10;;;;;;;8.34;78.44;100569.52;113212;1196;22427;-61
2021/11/08 09:59:33;;;;;;;9.90;1.00;;;;;;;8.36;78.48;100573.10;113313;1196;24287;-60
2021/11/08 10:02:10;;;;;;;5.40;1.30;;;;;;;8.37;78.26;100568.94;114284;1196;22441;-60
2021/11/08 10:04:42;;;;;;;6.20;0.90;;;;;;;8.39;78.24;100570.04;113282;1196;25452;-61
2021/11/08 10:07:14;;;;;;;7.30;1.00;;;;;;;8.41;78.12;100567.04;113419;1196;22422;-58
2021/11/08 10:09:45;;;;;;;6.00;1.10;;;;;;;8.42;78.00;100562.13;113374;1196;22441;-60
2021/11/08 10:12:17;;;;;;;6.20;0.90;;;;;;;8.43;77.88;100554.88;113234;1196;22437;-60
2021/11/08 10:14:48;;;;;;;3.40;0.70;;;;;;;8.45;77.89;100559.95;113300;1196;22587;-60
2021/11/08 10:17:19;;;;;;;7.40;0.90;;;;;;;8.47;77.82;100561.80;113186;1189;24124;-61
2021/11/08 10:19:50;;;;;;;5.60;0.80;;;;;;;8.48;77.79;100558.40;113214;1196;22447;-62
2021/11/08 10:22:22;;;;;;;3.40;0.80;;;;;;;8.51;77.91;100560.52;113212;1196;22443;-62
2021/11/08 10:25:03;;;;;;;3.60;0.80;;;;;;;8.56;77.85;100562.17;113172;1196;24192;-60
2021/11/08 10:30:32;;;;;;;5.00;1.20;;;;;;;8.61;77.84;100561.40;113376;1198;24147;-61
2021/11/08 10:33:17;;;;;;;7.10;0.80;;;;;;;8.64;77.75;100565.58;113088;1198;22444;-59
2021/11/08 10:35:51;;;;;;;5.80;1.10;;;;;;;8.64;77.64;100563.25;113091;1198;22444;-61
2021/11/08 10:38:25;;;;;;;3.80;0.90;;;;;;;8.65;77.64;100567.77;113138;1198;22420;-61
2021/11/08 10:40:59;;;;;;;6.40;0.70;;;;;;;8.64;77.58;100572.06;113067;1198;22474;-59
2021/11/08 10:43:33;;;;;;;5.00;0.90;;;;;;;8.64;77.65;100573.75;113368;1184;24060;-59
2021/11/08 10:46:08;;;;;;;7.30;0.80;;;;;;;8.65;77.53;100570.61;113144;1199;25051;-60
2021/11/08 10:48:41;;;;;;;3.00;0.50;;;;;;;8.66;77.31;100572.02;113107;1198;23773;-59
2021/11/08 10:51:16;;;;;;;3.20;0.50;;;;;;;8.69;77.07;100576.96;113253;1199;22584;-59
2021/11/08 10:53:52;;;;;;;3.60;0.70;;;;;;;8.71;77.11;100579.76;113017;1199;25127;-60
2021/11/08 10:56:29;;;;;;;4.10;0.70;;;;;;;8.72;76.99;100581.94;113230;1198;22908;-60
2021/11/08 10:59:02;;;;;;;4.70;0.70;;;;;;;8.73;76.88;100581.66;113138;1199;23569;-59
2021/11/08 11:01:36;;;;;;;4.20;0.80;;;;;;;8.74;76.87;100589.27;113127;1199;25413;-60
2021/11/08 11:04:10;;;;;;;5.70;0.70;;;;;;;8.75;77.05;100584.40;113097;1199;22530;-59
2021/11/08 11:06:43;;;;;;;3.50;1.00;;;;;;;8.76;77.01;100589.19;113322;1192;22531;-58
2021/11/08 11:09:19;;;;;;;5.90;0.90;;;;;;;8.76;76.90;100591.08;113542;1198;25082;-59
2021/11/08 11:12:07;;;;;;;7.70;1.10;;;;;;;8.76;76.97;100594.73;113009;1198;22504;-60
2021/11/08 11:14:44;;;;;;;4.80;1.00;;;;;;;8.78;77.05;100601.28;113365;1198;24032;-58
2021/11/08 11:17:17;;;;;;;8.50;1.00;;;;;;;8.77;77.06;100601.68;113203;1193;22542;-61
2021/11/08 11:19:49;;;;;;;5.80;0.90;;;;;;;8.76;77.07;100606.44;113231;1199;23022;-61
2021/11/08 11:22:24;;;;;;;3.90;0.90;;;;;;;8.74;77.01;100606.69;112980;1199;22443;-59
2021/11/08 11:24:57;;;;;;;5.00;0.70;;;;;;;8.72;77.08;100606.27;113305;1193;26185;-60
2021/11/08 11:27:43;;;;;;;7.70;1.20;;;;;;;8.70;76.96;100607.23;113183;1198;22442;-59
2021/11/08 11:30:20;;;;;;;3.20;0.60;;;;;;;8.70;76.96;100606.85;113028;1199;22672;-58
2021/11/08 11:33:03;;;;;;;3.10;0.80;;;;;;;8.70;77.01;100605.09;113038;1193;26261;-60
2021/11/08 11:35:40;;;;;;;3.60;0.70;;;;;;;8.71;76.99;100607.85;113075;1199;22421;-59
2021/11/08 11:38:13;;;;;;;3.70;0.90;;;;;;;8.70;76.86;100607.88;112832;1199;25130;-59
2021/11/08 11:40:48;;;;;;;4.80;1.20;;;;;;;8.69;76.95;100610.79;112943;1199;24029;-59
2021/11/08 11:43:26;;;;;;;7.40;1.20;;;;;;;8.70;77.01;100609.63;113443;1199;24099;-60
2021/11/08 11:45:58;;;;;;;4.70;1.00;;;;;;;8.71;77.10;100609.17;112795;1199;26359;-59
2021/11/08 11:48:31;;;;;;;3.00;0.80;;;;;;;8.73;76.92;100612.52;113073;1193;25121;-60
2021/11/08 11:51:05;;;;;;;4.20;0.90;;;;;;;8.75;76.85;100614.30;112811;1199;22461;-61
2021/11/08 11:53:38;;;;;;;4.80;0.80;;;;;;;8.75;76.70;100615.31;112928;1192;22469;-61
2021/11/08 11:56:09;;;;;;;8.50;1.60;;;;;;;8.74;76.45;100617.66;112973;1199;24134;-59
2021/11/08 11:58:43;;;;;;;6.50;1.60;;;;;;;8.73;76.70;100618.65;112929;1199;24861;-61
2021/11/08 12:01:18;;;;;;;6.20;1.00;;;;;;;8.72;76.65;100617.16;112912;1199;24044;-61
2021/11/08 12:03:51;;;;;;;5.10;1.00;;;;;;;8.72;76.86;100618.21;113000;1198;22453;-61
2021/11/08 12:06:25;;;;;;;9.10;1.20;;;;;;;8.72;76.77;100619.14;112774;1199;23835;-60
2021/11/08 12:08:58;;;;;;;3.60;0.80;;;;;;;8.73;76.60;100623.41;112977;1199;23441;-60
2021/11/08 12:11:34;;;;;;;2.20;0.80;;;;;;;8.72;76.60;100620.60;113092;1198;22471;-60
2021/11/08 12:14:12;;;;;;;5.40;0.90;;;;;;;8.70;76.59;100620.34;113297;1199;22553;-61
2021/11/08 12:16:58;;;;;;;4.70;1.00;;;;;;;8.69;76.48;100622.30;113105;1200;22449;-59
2021/11/08 12:19:33;;;;;;;9.70;1.50;;;;;;;8.68;76.71;100623.20;113383;1199;22460;-59
2021/11/08 12:22:15;;;;;;;8.10;1.40;;;;;;;8.68;76.63;100626.33;113233;1193;24086;-61
2021/11/08 12:24:58;;;;;;;5.50;1.30;;;;;;;8.67;76.74;100621.54;113208;1199;22911;-61
2021/11/08 12:27:38;;;;;;;7.90;1.30;;;;;;;8.66;76.82;100620.51;113128;1198;22461;-60
2021/11/08 12:30:15;;;;;;;8.40;1.30;;;;;;;8.66;76.84;100620.97;112979;1193;22449;-57
2021/11/08 12:32:49;;;;;;;6.80;1.20;;;;;;;8.65;76.91;100619.98;113305;1199;24062;-58
2021/11/08 12:35:23;;;;;;;7.50;1.40;;;;;;;8.66;76.92;100620.69;113278;1198;25179;-58
2021/11/08 12:37:55;;;;;;;7.30;1.60;;;;;;;8.66;76.95;100615.43;113502;1199;22899;-59
2021/11/08 12:40:32;;;;;;;7.00;1.30;;;;;;;8.68;76.95;100617.66;113170;1198;22440;-59
2021/11/08 12:43:03;;;;;;;4.70;1.30;;;;;;;8.70;76.97;100616.13;113494;1199;25130;-58
2021/11/08 12:45:41;;;;;;;7.80;1.60;;;;;;;8.72;76.84;100618.45;113149;1198;22429;-59
2021/11/08 12:48:14;;;;;;;5.70;1.60;;;;;;;8.73;76.92;100613.40;112913;1199;22442;-59
2021/11/08 12:50:47;;;;;;;4.50;1.30;;;;;;;8.76;76.88;100608.34;113080;1199;22442;-60
2021/11/08 12:53:28;;;;;;;7.90;2.10;;;;;;;8.79;76.71;100609.17;113329;1199;22434;-60
2021/11/08 12:56:07;;;;;;;4.20;1.40;;;;;;;8.80;76.61;100606.36;113177;1199;22453;-61
2021/11/08 12:58:43;;;;;;;6.10;1.40;;;;;;;8.81;76.51;100615.41;113200;1199;22456;-59
2021/11/08 13:01:19;;;;;;;7.50;1.50;;;;;;;8.80;76.53;100617.79;113123;1199;22456;-60
2021/11/08 13:03:53;;;;;;;7.30;1.80;;;;;;;8.79;76.45;100613.98;113141;1193;24062;-59
2021/11/08 13:06:30;;;;;;;5.80;1.20;;;;;;;8.78;76.48;100617.83;113009;1199;24065;-60
2021/11/08 13:09:11;;;;;;;8.10;1.70;;;;;;;8.78;76.59;100626.95;113271;1199;22439;-60
2021/11/08 13:11:48;;;;;;;5.90;1.60;;;;;;;8.78;76.54;100627.36;113176;1193;24160;-58
2021/11/08 13:14:28;;;;;;;8.50;2.20;;;;;;;8.77;76.60;100625.81;113116;1193;22464;-61
2021/11/08 13:17:06;;;;;;;;;;;;;;;8.76;76.64;100629.27;113108;1199;25180;-60
2021/11/08 13:19:47;;;;;;;7.50;2.60;;;;;;;8.74;76.61;100635.08;113090;1199;22544;-61
2021/11/08 13:22:23;;;;;;;8.80;2.10;;;;;;;8.72;76.68;100638.35;113102;1198;22442;-61
2021/11/08 13:25:05;;;;;;;8.40;2.60;;;;;;;8.68;76.47;100637.27;113253;1191;25325;-61